createdAt,value
2019-01-17T00:00:09.802Z,95.68
2019-01-17T00:01:10.274Z,95.68
2019-01-17T00:02:10.744Z,95.70
2019-01-17T00:03:11.220Z,95.71
2019-01-17T00:04:11.688Z,95.70
2019-01-17T00:05:12.501Z,95.67
2019-01-17T00:06:12.634Z,95.66
2019-01-17T00:07:13.108Z,95.68
2019-01-17T00:08:13.579Z,95.71
2019-01-17T00:09:14.051Z,95.72
2019-01-17T00:10:14.726Z,95.70
2019-01-17T00:11:14.995Z,95.70
2019-01-17T00:12:15.466Z,95.70
2019-01-17T00:13:15.943Z,95.70
2019-01-17T00:14:16.415Z,95.71
2019-01-17T00:15:16.924Z,95.70
2019-01-17T00:16:17.363Z,95.71
2019-01-17T00:17:18.173Z,95.70
2019-01-17T00:18:18.301Z,95.70
2019-01-17T00:19:18.774Z,95.66
2019-01-17T00:20:19.247Z,95.66
2019-01-17T00:21:19.758Z,95.70
2019-01-17T00:22:20.191Z,95.66
2019-01-17T00:23:20.665Z,95.66
2019-01-17T00:24:21.478Z,95.70
2019-01-17T00:25:21.608Z,95.67
2019-01-17T00:26:22.083Z,95.70
2019-01-17T00:27:22.555Z,95.69
2019-01-17T00:28:23.367Z,95.71
2019-01-17T00:29:23.499Z,95.70
2019-01-17T00:30:23.971Z,95.71
2019-01-17T00:31:24.444Z,95.67
2019-01-17T00:32:25.256Z,95.68
2019-01-17T00:33:25.729Z,95.70
2019-01-17T00:34:25.860Z,95.67
2019-01-17T00:35:26.334Z,95.70
2019-01-17T00:36:26.806Z,95.71
2019-01-17T00:37:27.277Z,95.68
2019-01-17T00:38:27.749Z,95.70
2019-01-17T00:39:28.221Z,95.70
2019-01-17T00:40:28.745Z,95.67
2019-01-17T00:41:29.167Z,95.70
2019-01-17T00:42:29.640Z,95.66
2019-01-17T00:43:30.112Z,95.70
2019-01-17T00:44:30.586Z,95.70
2019-01-17T00:45:31.359Z,95.71
2019-01-17T00:46:31.530Z,95.70
2019-01-17T00:47:32.001Z,95.70
2019-01-17T00:48:32.473Z,95.71
2019-01-17T00:49:33.286Z,95.70
2019-01-17T00:50:33.419Z,95.70
2019-01-17T00:51:33.891Z,95.70
2019-01-17T00:52:34.363Z,95.70
2019-01-17T00:53:34.836Z,95.69
2019-01-17T00:54:35.650Z,95.70
2019-01-17T00:55:35.785Z,95.70
2019-01-17T00:56:36.256Z,95.68
2019-01-17T00:57:36.723Z,95.70
2019-01-17T00:58:37.197Z,95.70
2019-01-17T00:59:37.670Z,95.70
2019-01-17T01:00:38.142Z,95.69
2019-01-17T01:01:38.616Z,95.72
2019-01-17T01:02:39.088Z,95.70
2019-01-17T01:03:39.560Z,95.70
2019-01-17T01:04:40.032Z,95.71
2019-01-17T01:05:40.509Z,95.70
2019-01-17T01:06:40.978Z,95.70
2019-01-17T01:07:41.451Z,95.69
2019-01-17T01:08:41.924Z,95.70
2019-01-17T01:09:42.394Z,95.68
2019-01-17T01:10:42.916Z,95.70
2019-01-17T01:11:43.340Z,95.70
2019-01-17T01:12:43.813Z,95.73
2019-01-17T01:13:44.283Z,95.74
2019-01-17T01:14:44.757Z,95.70
2019-01-17T01:15:45.231Z,95.70
2019-01-17T01:16:45.705Z,95.70
2019-01-17T01:17:46.174Z,95.72
2019-01-17T01:18:46.684Z,95.70
2019-01-17T01:19:47.120Z,95.70
2019-01-17T01:20:47.589Z,95.70
2019-01-17T01:21:48.061Z,95.70
2019-01-17T01:22:48.534Z,95.70
2019-01-17T01:23:49.009Z,95.70
2019-01-17T01:24:49.482Z,95.70
2019-01-17T01:25:50.000Z,95.71
2019-01-17T01:26:50.421Z,95.70
2019-01-17T01:27:50.897Z,95.72
2019-01-17T01:28:51.361Z,95.70
2019-01-17T01:29:51.833Z,95.70
2019-01-17T01:30:52.339Z,95.70
2019-01-17T01:31:52.773Z,95.70
2019-01-17T01:32:53.243Z,95.72
2019-01-17T01:33:53.716Z,95.70
2019-01-17T01:34:54.180Z,95.71
2019-01-17T01:35:54.991Z,95.70
2019-01-17T01:36:55.157Z,95.70
2019-01-17T01:37:55.587Z,95.71
2019-01-17T01:38:56.055Z,95.74
2019-01-17T01:39:56.526Z,95.70
2019-01-17T01:40:57.043Z,95.71
2019-01-17T01:41:57.464Z,95.72
2019-01-17T01:42:57.929Z,95.72
2019-01-17T01:43:58.398Z,95.71
2019-01-17T01:44:58.866Z,95.74
2019-01-17T01:45:59.336Z,95.73
2019-01-17T01:46:59.803Z,95.71
2019-01-17T01:48:00.272Z,95.71
2019-01-17T01:49:00.738Z,95.71
2019-01-17T01:50:01.208Z,95.74
2019-01-17T01:51:01.675Z,95.71
2019-01-17T01:52:02.491Z,95.72
2019-01-17T01:53:02.609Z,95.72
2019-01-17T01:54:03.078Z,95.70
2019-01-17T01:55:03.550Z,95.71
2019-01-17T01:56:04.070Z,95.71
2019-01-17T01:57:04.486Z,95.74
2019-01-17T01:58:04.951Z,95.71
2019-01-17T01:59:05.424Z,95.74
2019-01-17T02:00:05.889Z,95.72
2019-01-17T02:01:06.386Z,95.71
2019-01-17T02:02:06.863Z,95.70
2019-01-17T02:03:07.304Z,95.70
2019-01-17T02:04:07.765Z,95.72
2019-01-17T02:05:08.617Z,95.70
2019-01-17T02:06:08.739Z,95.74
2019-01-17T02:07:09.170Z,95.72
2019-01-17T02:08:09.640Z,95.72
2019-01-17T02:09:10.108Z,95.72
2019-01-17T02:10:10.580Z,95.74
2019-01-17T02:11:11.099Z,95.71
2019-01-17T02:12:11.515Z,95.71
2019-01-17T02:13:12.025Z,95.70
2019-01-17T02:14:12.454Z,95.71
2019-01-17T02:15:12.924Z,95.74
2019-01-17T02:16:13.485Z,95.71
2019-01-17T02:17:13.865Z,95.74
2019-01-17T02:18:14.332Z,95.74
2019-01-17T02:19:14.803Z,95.74
2019-01-17T02:20:15.615Z,95.74
2019-01-17T02:21:15.765Z,95.74
2019-01-17T02:22:16.212Z,95.74
2019-01-17T02:23:16.683Z,95.74
2019-01-17T02:24:17.497Z,95.74
2019-01-17T02:25:17.963Z,95.74
2019-01-17T02:26:18.101Z,95.73
2019-01-17T02:27:18.903Z,95.74
2019-01-17T02:28:19.373Z,95.74
2019-01-17T02:29:19.502Z,95.71
2019-01-17T02:30:19.978Z,95.72
2019-01-17T02:31:20.445Z,95.71
2019-01-17T02:32:20.915Z,95.74
2019-01-17T02:33:21.384Z,95.74
2019-01-17T02:34:21.859Z,95.70
2019-01-17T02:35:22.326Z,95.74
2019-01-17T02:36:22.797Z,95.74
2019-01-17T02:37:23.266Z,95.74
2019-01-17T02:38:23.750Z,95.70
2019-01-17T02:39:24.208Z,95.72
2019-01-17T02:40:24.681Z,95.74
2019-01-17T02:41:25.152Z,95.74
2019-01-17T02:42:25.621Z,95.74
2019-01-17T02:43:26.094Z,95.74
2019-01-17T02:44:26.564Z,95.74
2019-01-17T02:45:27.033Z,95.74
2019-01-17T02:46:27.504Z,95.75
2019-01-17T02:47:27.979Z,95.74
2019-01-17T02:48:28.449Z,95.70
2019-01-17T02:49:29.124Z,95.78
2019-01-17T02:50:29.397Z,95.74
2019-01-17T02:51:29.911Z,95.71
2019-01-17T02:52:30.333Z,95.74
2019-01-17T02:53:30.802Z,95.72
2019-01-17T02:54:35.733Z,95.74
2019-01-17T02:55:32.087Z,95.74
2019-01-17T02:56:32.217Z,95.74
2019-01-17T02:57:32.692Z,95.74
2019-01-17T02:58:33.158Z,95.76
2019-01-17T02:59:33.636Z,95.74
2019-01-17T03:00:34.110Z,95.74
2019-01-17T03:01:34.571Z,95.72
2019-01-17T03:02:35.043Z,95.74
2019-01-17T03:03:35.514Z,95.74
2019-01-17T03:04:35.987Z,95.74
2019-01-17T03:05:36.460Z,95.74
2019-01-17T03:06:36.984Z,95.74
2019-01-17T03:07:37.403Z,95.74
2019-01-17T03:08:37.873Z,95.74
2019-01-17T03:09:38.343Z,95.74
2019-01-17T03:10:38.814Z,95.74
2019-01-17T03:11:39.339Z,95.72
2019-01-17T03:12:39.759Z,95.74
2019-01-17T03:14:40.703Z,95.70
2019-01-17T03:15:41.173Z,95.74
2019-01-17T03:16:41.646Z,95.71
2019-01-17T03:17:42.117Z,95.74
2019-01-17T03:18:42.593Z,95.74
2019-01-17T03:19:43.097Z,95.70
2019-01-17T03:20:43.532Z,95.74
2019-01-17T03:21:44.002Z,95.74
2019-01-17T03:22:44.475Z,95.74
2019-01-17T03:23:44.947Z,95.74
2019-01-17T03:24:45.419Z,95.74
2019-01-17T03:25:45.891Z,95.70
2019-01-17T03:26:46.411Z,95.74
2019-01-17T03:27:46.833Z,95.74
2019-01-17T03:28:47.306Z,95.74
2019-01-17T03:29:47.782Z,95.74
2019-01-17T03:30:48.251Z,95.74
2019-01-17T03:31:48.722Z,95.74
2019-01-17T03:32:49.205Z,95.70
2019-01-17T03:33:49.666Z,95.74
2019-01-17T03:34:50.478Z,95.72
2019-01-17T03:35:50.609Z,95.74
2019-01-17T03:36:51.089Z,95.73
2019-01-17T03:37:51.554Z,95.76
2019-01-17T03:38:52.026Z,95.74
2019-01-17T03:39:52.500Z,95.74
2019-01-17T03:40:52.973Z,95.74
2019-01-17T03:41:53.477Z,95.74
2019-01-17T03:42:53.913Z,95.74
2019-01-17T03:43:54.387Z,95.74
2019-01-17T03:44:54.898Z,95.74
2019-01-17T03:45:55.327Z,95.74
2019-01-17T03:46:55.802Z,95.74
2019-01-17T03:47:56.271Z,95.74
2019-01-17T03:48:56.746Z,95.74
2019-01-17T03:49:57.222Z,95.77
2019-01-17T03:51:58.166Z,95.75
2019-01-17T03:52:58.635Z,95.74
2019-01-17T03:53:59.142Z,95.74
2019-01-17T03:54:59.579Z,95.74
2019-01-17T03:56:00.391Z,95.76
2019-01-17T03:57:00.526Z,95.75
2019-01-17T03:58:00.994Z,95.74
2019-01-17T03:59:01.464Z,95.74
2019-01-17T04:00:01.941Z,95.74
2019-01-17T04:01:02.409Z,95.74
2019-01-17T04:02:02.881Z,95.76
2019-01-17T04:03:03.356Z,95.74
2019-01-17T04:04:03.868Z,95.74
2019-01-17T04:05:04.639Z,95.75
2019-01-17T04:06:04.771Z,95.76
2019-01-17T04:07:05.246Z,95.74
2019-01-17T04:08:05.713Z,95.74
2019-01-17T04:09:06.185Z,95.77
2019-01-17T04:10:06.658Z,95.75
2019-01-17T04:11:07.129Z,95.75
2019-01-17T04:12:07.612Z,95.75
2019-01-17T04:13:08.075Z,95.75
2019-01-17T04:14:08.546Z,95.77
2019-01-17T04:15:09.021Z,95.74
2019-01-17T04:16:09.493Z,95.75
2019-01-17T04:17:09.962Z,95.78
2019-01-17T04:18:10.436Z,95.76
2019-01-17T04:19:10.907Z,95.74
2019-01-17T04:20:11.381Z,95.74
2019-01-17T04:21:11.852Z,95.76
2019-01-17T04:22:12.324Z,95.74
2019-01-17T04:23:12.800Z,95.75
2019-01-17T04:24:13.273Z,95.74
2019-01-17T04:25:13.743Z,95.75
2019-01-17T04:26:14.554Z,95.74
2019-01-17T04:27:14.686Z,95.79
2019-01-17T04:28:15.500Z,95.76
2019-01-17T04:29:15.633Z,95.75
2019-01-17T04:30:16.101Z,95.77
2019-01-17T04:31:16.916Z,95.75
2019-01-17T04:32:17.047Z,95.79
2019-01-17T04:33:17.522Z,95.79
2019-01-17T04:34:17.994Z,95.77
2019-01-17T04:35:18.463Z,95.77
2019-01-17T04:36:18.939Z,95.75
2019-01-17T04:37:19.408Z,95.79
2019-01-17T04:38:20.224Z,95.78
2019-01-17T04:39:20.390Z,95.76
2019-01-17T04:40:20.828Z,95.75
2019-01-17T04:41:21.645Z,95.79
2019-01-17T04:42:21.820Z,95.75
2019-01-17T04:43:22.246Z,95.76
2019-01-17T04:44:22.714Z,95.77
2019-01-17T04:45:23.190Z,95.75
2019-01-17T04:46:23.677Z,95.79
2019-01-17T04:47:24.148Z,95.76
2019-01-17T04:48:24.644Z,95.80
2019-01-17T04:49:25.081Z,95.79
2019-01-17T04:50:25.551Z,95.79
2019-01-17T04:51:26.022Z,95.76
2019-01-17T04:52:26.840Z,95.79
2019-01-17T04:53:26.971Z,95.80
2019-01-17T04:54:27.783Z,95.79
2019-01-17T04:55:27.916Z,95.76
2019-01-17T04:56:28.386Z,95.80
2019-01-17T04:57:28.909Z,95.80
2019-01-17T04:58:29.330Z,95.80
2019-01-17T04:59:29.804Z,95.80
2019-01-17T05:00:30.276Z,95.78
2019-01-17T05:01:31.090Z,95.80
2019-01-17T05:02:31.222Z,95.80
2019-01-17T05:03:31.694Z,95.77
2019-01-17T05:04:32.165Z,95.79
2019-01-17T05:05:32.638Z,95.81
2019-01-17T05:06:33.110Z,95.80
2019-01-17T05:07:33.584Z,95.80
2019-01-17T05:08:34.055Z,95.80
2019-01-17T05:09:34.527Z,95.81
2019-01-17T05:10:34.999Z,95.78
2019-01-17T05:11:35.472Z,95.81
2019-01-17T05:12:35.985Z,95.81
2019-01-17T05:13:36.417Z,95.77
2019-01-17T05:14:36.887Z,95.83
2019-01-17T05:15:37.370Z,95.81
2019-01-17T05:16:37.832Z,95.80
2019-01-17T05:17:38.309Z,95.81
2019-01-17T05:18:38.780Z,95.81
2019-01-17T05:19:39.252Z,95.81
2019-01-17T05:20:39.726Z,95.81
2019-01-17T05:21:40.205Z,95.81
2019-01-17T05:22:40.671Z,95.81
2019-01-17T05:23:41.146Z,95.81
2019-01-17T05:24:41.613Z,95.81
2019-01-17T05:25:42.086Z,95.83
2019-01-17T05:26:42.561Z,95.82
2019-01-17T05:27:43.032Z,95.81
2019-01-17T05:28:43.504Z,95.82
2019-01-17T05:29:43.985Z,95.82
2019-01-17T05:30:44.446Z,95.84
2019-01-17T05:31:44.920Z,95.81
2019-01-17T05:32:45.396Z,95.82
2019-01-17T05:33:45.866Z,95.82
2019-01-17T05:34:46.337Z,95.82
2019-01-17T05:35:46.810Z,95.82
2019-01-17T05:36:47.291Z,95.81
2019-01-17T05:37:47.753Z,95.82
2019-01-17T05:38:48.226Z,95.82
2019-01-17T05:39:48.699Z,95.82
2019-01-17T05:40:49.172Z,95.82
2019-01-17T05:41:49.652Z,95.84
2019-01-17T05:42:50.115Z,95.84
2019-01-17T05:43:50.589Z,95.83
2019-01-17T05:44:51.060Z,95.86
2019-01-17T05:45:51.533Z,95.83
2019-01-17T05:46:52.005Z,95.84
2019-01-17T05:47:52.475Z,95.83
2019-01-17T05:48:52.946Z,95.84
2019-01-17T05:49:53.416Z,95.86
2019-01-17T05:50:53.887Z,95.83
2019-01-17T05:51:54.357Z,95.83
2019-01-17T05:52:54.827Z,95.85
2019-01-17T05:53:55.297Z,95.83
2019-01-17T05:54:55.768Z,95.83
2019-01-17T05:55:56.237Z,95.85
2019-01-17T05:56:56.709Z,95.87
2019-01-17T05:57:57.480Z,95.85
2019-01-17T05:58:57.647Z,95.86
2019-01-17T05:59:58.113Z,95.87
2019-01-17T06:00:58.583Z,95.86
2019-01-17T06:01:59.051Z,95.87
2019-01-17T06:02:59.518Z,95.87
2019-01-17T06:03:59.987Z,95.85
2019-01-17T06:05:00.455Z,95.86
2019-01-17T06:06:00.924Z,95.87
2019-01-17T06:07:01.392Z,95.87
2019-01-17T06:08:01.859Z,95.88
2019-01-17T06:09:02.328Z,95.87
2019-01-17T06:10:02.797Z,95.86
2019-01-17T06:11:03.267Z,95.88
2019-01-17T06:12:03.734Z,95.89
2019-01-17T06:13:04.199Z,95.87
2019-01-17T06:14:04.669Z,95.85
2019-01-17T06:15:05.136Z,95.88
2019-01-17T06:16:05.606Z,95.89
2019-01-17T06:17:06.072Z,95.89
2019-01-17T06:18:06.540Z,95.89
2019-01-17T06:19:07.008Z,95.89
2019-01-17T06:20:07.480Z,95.89
2019-01-17T06:21:07.945Z,95.89
2019-01-17T06:22:08.415Z,95.89
2019-01-17T06:23:08.881Z,95.89
2019-01-17T06:24:09.349Z,95.87
2019-01-17T06:25:09.823Z,95.86
2019-01-17T06:26:10.291Z,95.89
2019-01-17T06:27:10.757Z,95.89
2019-01-17T06:28:11.227Z,95.89
2019-01-17T06:29:11.694Z,95.89
2019-01-17T06:30:12.163Z,95.90
2019-01-17T06:31:12.631Z,95.89
2019-01-17T06:32:13.099Z,95.89
2019-01-17T06:33:13.570Z,95.90
2019-01-17T06:34:14.041Z,95.90
2019-01-17T06:35:14.509Z,95.90
2019-01-17T06:36:14.982Z,95.89
2019-01-17T06:37:15.447Z,95.90
2019-01-17T06:38:15.922Z,95.90
2019-01-17T06:39:16.385Z,95.90
2019-01-17T06:40:16.858Z,95.90
2019-01-17T06:41:17.324Z,95.90
2019-01-17T06:42:17.795Z,95.90
2019-01-17T06:43:18.263Z,95.90
2019-01-17T06:44:20.413Z,95.91
2019-01-17T06:45:19.407Z,95.90
2019-01-17T06:46:19.678Z,95.90
2019-01-17T06:47:20.143Z,95.91
2019-01-17T06:48:20.614Z,95.93
2019-01-17T06:49:21.084Z,95.91
2019-01-17T06:50:21.560Z,95.91
2019-01-17T06:51:22.021Z,95.91
2019-01-17T06:52:22.494Z,95.91
2019-01-17T06:53:22.964Z,95.91
2019-01-17T06:54:23.434Z,95.91
2019-01-17T06:55:23.905Z,95.95
2019-01-17T06:56:24.373Z,95.93
2019-01-17T06:57:24.845Z,95.91
2019-01-17T06:58:25.324Z,95.95
2019-01-17T06:59:25.785Z,95.95
2019-01-17T07:00:26.256Z,95.92
2019-01-17T07:01:26.726Z,95.93
2019-01-17T07:02:27.196Z,95.93
2019-01-17T07:03:27.669Z,95.95
2019-01-17T07:04:28.140Z,95.96
2019-01-17T07:05:28.609Z,95.95
2019-01-17T07:06:29.079Z,95.96
2019-01-17T07:07:29.550Z,95.94
2019-01-17T07:08:30.088Z,95.92
2019-01-17T07:09:30.491Z,95.94
2019-01-17T07:10:30.970Z,95.92
2019-01-17T07:11:31.432Z,95.96
2019-01-17T07:12:31.904Z,95.94
2019-01-17T07:13:32.374Z,95.96
2019-01-17T07:14:32.849Z,95.96
2019-01-17T07:15:33.317Z,95.96
2019-01-17T07:16:33.788Z,95.94
2019-01-17T07:17:34.263Z,95.96
2019-01-17T07:18:34.731Z,95.96
2019-01-17T07:19:35.202Z,95.96
2019-01-17T07:20:35.672Z,95.93
2019-01-17T07:21:36.143Z,95.96
2019-01-17T07:22:36.615Z,95.96
2019-01-17T07:23:37.087Z,95.97
2019-01-17T07:24:37.759Z,95.96
2019-01-17T07:25:41.080Z,95.97
2019-01-17T07:26:38.503Z,95.96
2019-01-17T07:27:38.970Z,95.95
2019-01-17T07:28:39.494Z,95.97
2019-01-17T07:29:39.913Z,95.97
2019-01-17T07:30:40.387Z,95.95
2019-01-17T07:31:40.856Z,95.98
2019-01-17T07:32:41.330Z,95.97
2019-01-17T07:33:42.000Z,95.97
2019-01-17T07:34:42.271Z,95.98
2019-01-17T07:35:42.739Z,95.98
2019-01-17T07:36:43.219Z,95.98
2019-01-17T07:37:43.685Z,95.98
2019-01-17T07:38:44.163Z,95.98
2019-01-17T07:39:44.633Z,95.97
2019-01-17T07:40:45.100Z,95.98
2019-01-17T07:41:45.570Z,95.98
2019-01-17T07:42:46.041Z,95.98
2019-01-17T07:43:46.564Z,95.98
2019-01-17T07:44:46.986Z,96.02
2019-01-17T07:45:47.459Z,95.98
2019-01-17T07:46:47.929Z,95.98
2019-01-17T07:47:48.400Z,95.98
2019-01-17T07:48:48.872Z,95.98
2019-01-17T07:49:49.345Z,96.02
2019-01-17T07:50:49.818Z,95.98
2019-01-17T07:51:50.291Z,95.98
2019-01-17T07:52:50.761Z,95.98
2019-01-17T07:53:51.230Z,96.02
2019-01-17T07:54:51.702Z,96.02
2019-01-17T07:55:52.173Z,96.01
2019-01-17T07:56:52.645Z,95.99
2019-01-17T07:57:53.132Z,96.02
2019-01-17T07:58:53.590Z,96.01
2019-01-17T07:59:54.060Z,96.01
2019-01-17T08:00:54.536Z,96.01
2019-01-17T08:01:55.007Z,96.03
2019-01-17T08:02:55.481Z,96.01
2019-01-17T08:03:55.998Z,96.03
2019-01-17T08:04:56.420Z,95.99
2019-01-17T08:05:56.892Z,96.03
2019-01-17T08:06:57.364Z,96.04
2019-01-17T08:07:57.836Z,96.03
2019-01-17T08:08:58.308Z,96.03
2019-01-17T08:09:58.780Z,96.03
2019-01-17T08:10:59.253Z,96.04
2019-01-17T08:12:05.028Z,96.04
2019-01-17T08:13:00.194Z,96.04
2019-01-17T08:14:00.666Z,96.04
2019-01-17T08:15:01.179Z,96.02
2019-01-17T08:16:01.610Z,96.04
2019-01-17T08:17:02.082Z,96.04
2019-01-17T08:18:02.553Z,96.04
2019-01-17T08:19:03.077Z,96.04
2019-01-17T08:20:03.497Z,96.04
2019-01-17T08:21:03.969Z,96.04
2019-01-17T08:22:04.441Z,96.04
2019-01-17T08:23:04.915Z,96.04
2019-01-17T08:24:05.387Z,96.05
2019-01-17T08:25:05.856Z,96.04
2019-01-17T08:26:06.331Z,96.04
2019-01-17T08:27:06.800Z,96.05
2019-01-17T08:28:07.273Z,96.05
2019-01-17T08:29:07.745Z,96.05
2019-01-17T08:30:08.217Z,96.05
2019-01-17T08:31:08.689Z,96.07
2019-01-17T08:32:09.160Z,96.05
2019-01-17T08:33:09.632Z,96.05
2019-01-17T08:34:10.153Z,96.05
2019-01-17T08:35:10.576Z,96.07
2019-01-17T08:36:11.047Z,96.09
2019-01-17T08:37:11.517Z,96.07
2019-01-17T08:38:11.990Z,96.05
2019-01-17T08:39:12.462Z,96.07
2019-01-17T08:40:12.933Z,96.09
2019-01-17T08:41:13.406Z,96.05
2019-01-17T08:42:13.880Z,96.05
2019-01-17T08:43:14.351Z,96.06
2019-01-17T08:44:14.821Z,96.08
2019-01-17T08:45:15.297Z,96.05
2019-01-17T08:46:15.767Z,96.07
2019-01-17T08:47:16.238Z,96.06
2019-01-17T08:48:16.709Z,96.09
2019-01-17T08:49:17.181Z,96.08
2019-01-17T08:50:17.654Z,96.10
2019-01-17T08:51:18.128Z,96.10
2019-01-17T08:52:18.599Z,96.08
2019-01-17T08:53:19.071Z,96.08
2019-01-17T08:54:19.593Z,96.08
2019-01-17T08:55:20.016Z,96.08
2019-01-17T08:56:20.487Z,96.08
2019-01-17T08:57:20.964Z,96.10
2019-01-17T08:58:21.429Z,96.10
2019-01-17T08:59:21.954Z,96.08
2019-01-17T09:00:22.374Z,96.10
2019-01-17T09:01:22.846Z,96.10
2019-01-17T09:02:23.320Z,96.10
2019-01-17T09:03:23.789Z,96.10
2019-01-17T09:04:24.263Z,96.10
2019-01-17T09:05:24.734Z,96.10
2019-01-17T09:06:25.210Z,96.10
2019-01-17T09:07:25.679Z,96.10
2019-01-17T09:08:26.152Z,96.10
2019-01-17T09:09:26.624Z,96.10
2019-01-17T09:10:27.096Z,96.10
2019-01-17T09:11:27.568Z,96.10
2019-01-17T09:12:28.039Z,96.10
2019-01-17T09:13:28.511Z,96.10
2019-01-17T09:14:28.983Z,96.11
2019-01-17T09:15:29.455Z,96.10
2019-01-17T09:16:29.934Z,96.10
2019-01-17T09:17:30.401Z,96.11
2019-01-17T09:18:30.880Z,96.11
2019-01-17T09:19:31.345Z,96.11
2019-01-17T09:20:31.822Z,96.11
2019-01-17T09:21:32.288Z,96.11
2019-01-17T09:22:32.759Z,96.11
2019-01-17T09:23:33.233Z,96.11
2019-01-17T09:24:33.704Z,96.11
2019-01-17T09:25:34.177Z,96.11
2019-01-17T09:26:34.651Z,96.11
2019-01-17T09:27:35.125Z,96.11
2019-01-17T09:28:35.595Z,96.11
2019-01-17T09:29:36.065Z,96.11
2019-01-17T09:30:36.539Z,96.11
2019-01-17T09:31:37.050Z,96.11
2019-01-17T09:32:37.483Z,96.11
2019-01-17T09:33:37.954Z,96.11
2019-01-17T09:34:38.427Z,96.11
2019-01-17T09:35:38.902Z,96.11
2019-01-17T09:36:39.372Z,96.11
2019-01-17T09:37:39.846Z,96.13
2019-01-17T09:38:40.314Z,96.11
2019-01-17T09:39:40.788Z,96.11
2019-01-17T09:40:41.274Z,96.11
2019-01-17T09:41:41.735Z,96.11
2019-01-17T09:42:42.203Z,96.15
2019-01-17T09:43:42.678Z,96.11
2019-01-17T09:44:43.149Z,96.11
2019-01-17T09:45:43.620Z,96.15
2019-01-17T09:46:44.095Z,96.11
2019-01-17T09:47:44.569Z,96.11
2019-01-17T09:48:45.037Z,96.11
2019-01-17T09:49:45.510Z,96.12
2019-01-17T09:50:45.980Z,96.15
2019-01-17T09:51:46.455Z,96.14
2019-01-17T09:52:46.927Z,96.14
2019-01-17T09:53:47.398Z,96.15
2019-01-17T09:54:47.870Z,96.14
2019-01-17T09:55:48.343Z,96.11
2019-01-17T09:56:48.815Z,96.12
2019-01-17T09:57:49.288Z,96.13
2019-01-17T09:58:49.762Z,96.13
2019-01-17T09:59:50.233Z,96.14
2019-01-17T10:00:50.705Z,96.14
2019-01-17T10:01:51.177Z,96.16
2019-01-17T10:02:51.652Z,96.12
2019-01-17T10:03:52.122Z,96.16
2019-01-17T10:04:52.594Z,96.15
2019-01-17T10:05:53.066Z,96.16
2019-01-17T10:06:53.539Z,96.16
2019-01-17T10:07:54.015Z,96.16
2019-01-17T10:08:54.483Z,96.16
2019-01-17T10:09:54.955Z,96.15
2019-01-17T10:10:55.428Z,96.16
2019-01-17T10:11:55.901Z,96.16
2019-01-17T10:12:56.372Z,96.12
2019-01-17T10:13:56.845Z,96.14
2019-01-17T10:14:57.316Z,96.16
2019-01-17T10:15:57.791Z,96.14
2019-01-17T10:16:58.261Z,96.16
2019-01-17T10:17:58.735Z,96.16
2019-01-17T10:18:59.207Z,96.16
2019-01-17T10:19:59.679Z,96.14
2019-01-17T10:21:00.150Z,96.16
2019-01-17T10:22:00.622Z,96.16
2019-01-17T10:23:01.096Z,96.16
2019-01-17T10:24:01.570Z,96.16
2019-01-17T10:25:02.040Z,96.14
2019-01-17T10:26:02.512Z,96.16
2019-01-17T10:27:02.988Z,96.17
2019-01-17T10:28:03.459Z,96.16
2019-01-17T10:29:03.930Z,96.17
2019-01-17T10:30:04.452Z,96.16
2019-01-17T10:31:04.875Z,96.16
2019-01-17T10:32:05.347Z,96.17
2019-01-17T10:33:05.820Z,96.16
2019-01-17T10:34:06.289Z,96.16
2019-01-17T10:35:06.766Z,96.16
2019-01-17T10:36:07.237Z,96.16
2019-01-17T10:37:07.709Z,96.16
2019-01-17T10:38:08.180Z,96.16
2019-01-17T10:39:08.653Z,96.17
2019-01-17T10:40:09.125Z,96.19
2019-01-17T10:41:09.598Z,96.17
2019-01-17T10:42:10.071Z,96.17
2019-01-17T10:43:10.544Z,96.17
2019-01-17T10:44:11.015Z,96.17
2019-01-17T10:45:11.539Z,96.17
2019-01-17T10:46:11.961Z,96.17
2019-01-17T10:47:12.435Z,96.17
2019-01-17T10:48:12.910Z,96.17
2019-01-17T10:49:13.377Z,96.17
2019-01-17T10:50:13.852Z,96.17
2019-01-17T10:51:14.327Z,96.16
2019-01-17T10:52:14.801Z,96.16
2019-01-17T10:53:15.267Z,96.17
2019-01-17T10:54:15.745Z,96.19
2019-01-17T10:55:16.213Z,96.16
2019-01-17T10:56:16.685Z,96.20
2019-01-17T10:57:17.158Z,96.17
2019-01-17T10:58:17.633Z,96.17
2019-01-17T10:59:18.103Z,96.17
2019-01-17T11:00:18.576Z,96.17
2019-01-17T11:01:19.047Z,96.17
2019-01-17T11:02:19.520Z,96.17
2019-01-17T11:03:19.995Z,96.20
2019-01-17T11:04:20.469Z,96.17
2019-01-17T11:05:20.937Z,96.16
2019-01-17T11:06:21.412Z,96.20
2019-01-17T11:07:21.883Z,96.16
2019-01-17T11:08:22.357Z,96.16
2019-01-17T11:09:22.828Z,96.16
2019-01-17T11:10:23.306Z,96.20
2019-01-17T11:11:23.774Z,96.21
2019-01-17T11:12:24.244Z,96.18
2019-01-17T11:13:24.719Z,96.16
2019-01-17T11:14:25.190Z,96.17
2019-01-17T11:15:25.712Z,96.16
2019-01-17T11:16:26.136Z,96.18
2019-01-17T11:17:26.610Z,96.17
2019-01-17T11:18:27.080Z,96.19
2019-01-17T11:19:27.550Z,96.21
2019-01-17T11:20:28.037Z,96.18
2019-01-17T11:21:28.496Z,96.21
2019-01-17T11:22:28.969Z,96.18
2019-01-17T11:23:29.443Z,96.17
2019-01-17T11:24:29.915Z,96.20
2019-01-17T11:25:30.437Z,96.20
2019-01-17T11:26:34.288Z,96.19
2019-01-17T11:27:31.332Z,96.20
2019-01-17T11:28:31.821Z,96.21
2019-01-17T11:29:32.275Z,96.20
2019-01-17T11:30:32.751Z,96.21
2019-01-17T11:31:33.221Z,96.16
2019-01-17T11:32:33.695Z,96.18
2019-01-17T11:33:34.166Z,96.20
2019-01-17T11:34:34.639Z,96.20
2019-01-17T11:35:35.114Z,96.17
2019-01-17T11:36:35.584Z,96.16
2019-01-17T11:37:36.058Z,96.20
2019-01-17T11:38:36.527Z,96.20
2019-01-17T11:39:37.000Z,96.16
2019-01-17T11:40:37.474Z,96.20
2019-01-17T11:41:37.943Z,96.20
2019-01-17T11:42:38.418Z,96.16
2019-01-17T11:43:38.890Z,96.20
2019-01-17T11:44:39.363Z,96.20
2019-01-17T11:45:39.885Z,96.18
2019-01-17T11:46:40.306Z,96.20
2019-01-17T11:47:40.783Z,96.16
2019-01-17T11:48:41.254Z,96.20
2019-01-17T11:49:41.725Z,96.20
2019-01-17T11:50:42.199Z,96.18
2019-01-17T11:51:42.672Z,96.20
2019-01-17T11:52:43.144Z,96.18
2019-01-17T11:53:43.615Z,96.21
2019-01-17T11:54:44.087Z,96.21
2019-01-17T11:55:44.570Z,96.20
2019-01-17T11:56:45.034Z,96.20
2019-01-17T11:57:45.505Z,96.20
2019-01-17T11:58:45.981Z,96.20
2019-01-17T11:59:46.452Z,96.18
2019-01-17T12:00:46.926Z,96.20
2019-01-17T12:01:47.396Z,96.18
2019-01-17T12:02:47.868Z,96.20
2019-01-17T12:03:48.340Z,96.20
2019-01-17T12:04:48.813Z,96.20
2019-01-17T12:05:49.286Z,96.20
2019-01-17T12:06:49.760Z,96.20
2019-01-17T12:07:50.229Z,96.21
2019-01-17T12:08:50.701Z,96.20
2019-01-17T12:09:51.174Z,96.20
2019-01-17T12:10:51.649Z,96.20
2019-01-17T12:11:52.118Z,96.20
2019-01-17T12:12:52.592Z,96.20
2019-01-17T12:13:53.065Z,96.20
2019-01-17T12:14:53.540Z,96.21
2019-01-17T12:15:54.061Z,96.20
2019-01-17T12:16:54.530Z,96.20
2019-01-17T12:17:54.958Z,96.21
2019-01-17T12:18:55.427Z,96.20
2019-01-17T12:19:55.902Z,96.21
2019-01-17T12:20:56.424Z,96.20
2019-01-17T12:21:56.844Z,96.20
2019-01-17T12:22:57.315Z,96.21
2019-01-17T12:23:57.791Z,96.20
2019-01-17T12:24:58.263Z,96.20
2019-01-17T12:25:58.735Z,96.20
2019-01-17T12:26:59.208Z,96.21
2019-01-17T12:27:59.678Z,96.20
2019-01-17T12:29:00.183Z,96.20
2019-01-17T12:30:00.624Z,96.20
2019-01-17T12:31:01.097Z,96.20
2019-01-17T12:32:01.568Z,96.20
2019-01-17T12:33:02.042Z,96.21
2019-01-17T12:34:02.512Z,96.21
2019-01-17T12:35:02.989Z,96.21
2019-01-17T12:36:03.509Z,96.20
2019-01-17T12:37:03.933Z,96.20
2019-01-17T12:38:04.404Z,96.21
2019-01-17T12:39:04.876Z,96.21
2019-01-17T12:40:05.349Z,96.21
2019-01-17T12:41:05.822Z,96.21
2019-01-17T12:42:06.294Z,96.20
2019-01-17T12:43:06.764Z,96.21
2019-01-17T12:44:07.239Z,96.20
2019-01-17T12:45:07.714Z,96.21
2019-01-17T12:46:08.186Z,96.21
2019-01-17T12:47:08.654Z,96.21
2019-01-17T12:48:09.129Z,96.21
2019-01-17T12:49:09.600Z,96.24
2019-01-17T12:50:10.073Z,96.21
2019-01-17T12:51:10.544Z,96.24
2019-01-17T12:52:11.019Z,96.21
2019-01-17T12:53:11.491Z,96.21
2019-01-17T12:54:11.963Z,96.21
2019-01-17T12:55:12.435Z,96.22
2019-01-17T12:56:12.960Z,96.21
2019-01-17T12:57:13.382Z,96.21
2019-01-17T12:58:13.854Z,96.21
2019-01-17T12:59:14.326Z,96.25
2019-01-17T13:00:14.798Z,96.21